createdAt,value
2023-03-17T00:02:25.000Z,9.73
2023-03-17T00:07:25.000Z,9.73
2023-03-17T00:12:25.000Z,9.77
2023-03-17T00:17:25.000Z,10.02
2023-03-17T00:22:25.000Z,9.87
2023-03-17T00:27:25.000Z,9.76
2023-03-17T00:32:25.000Z,10.36
2023-03-17T00:37:25.000Z,10.27
2023-03-17T00:42:26.000Z,10.08
2023-03-17T00:47:25.000Z,10.21
2023-03-17T00:52:26.000Z,10.43
2023-03-17T00:57:25.000Z,10.05
2023-03-17T01:02:25.000Z,10.29
2023-03-17T01:07:25.000Z,9.91
2023-03-17T01:12:25.000Z,9.88
2023-03-17T01:17:25.000Z,10.69
2023-03-17T01:22:25.000Z,11.23
2023-03-17T01:27:25.000Z,10.55
2023-03-17T01:32:25.000Z,10.57
2023-03-17T01:37:26.000Z,10.14
2023-03-17T01:42:25.000Z,10.25
2023-03-17T01:47:25.000Z,9.89
2023-03-17T01:52:26.000Z,9.63
2023-03-17T01:57:25.000Z,9.55
2023-03-17T02:02:25.000Z,9.34
2023-03-17T02:07:25.000Z,9.04
2023-03-17T02:12:25.000Z,8.97
2023-03-17T02:17:25.000Z,9.07
2023-03-17T02:22:25.000Z,8.77
2023-03-17T02:27:25.000Z,8.83
2023-03-17T02:32:26.000Z,8.82
2023-03-17T02:37:26.000Z,8.6
2023-03-17T02:42:25.000Z,8.07
2023-03-17T02:47:25.000Z,7.76
2023-03-17T02:52:26.000Z,8.09
2023-03-17T02:57:25.000Z,7.71
2023-03-17T03:02:25.000Z,7.36
2023-03-17T03:07:25.000Z,8.16
2023-03-17T03:12:25.000Z,8.43
2023-03-17T03:17:26.000Z,8.14
2023-03-17T03:22:25.000Z,9.2
2023-03-17T03:27:26.000Z,8.63
2023-03-17T03:32:25.000Z,8.36
2023-03-17T03:37:25.000Z,8.2
2023-03-17T03:42:25.000Z,8.08
2023-03-17T03:47:25.000Z,7.95
2023-03-17T03:52:25.000Z,8.82
2023-03-17T03:57:25.000Z,9.66
2023-03-17T04:02:25.000Z,7.6
2023-03-17T04:07:26.000Z,7.42
2023-03-17T04:12:25.000Z,7.75
2023-03-17T04:17:25.000Z,7.69
2023-03-17T04:22:25.000Z,7.59
2023-03-17T04:27:26.000Z,7.4
2023-03-17T04:32:25.000Z,7.04
2023-03-17T04:37:25.000Z,6.66
2023-03-17T04:42:25.000Z,6.25
2023-03-17T04:47:25.000Z,7.03
2023-03-17T04:52:26.000Z,6.77
2023-03-17T04:57:25.000Z,6.43
2023-03-17T05:02:25.000Z,6.41
2023-03-17T05:07:25.000Z,6.18
2023-03-17T05:12:25.000Z,6.55
2023-03-17T05:17:25.000Z,5.84
2023-03-17T05:22:26.000Z,6.47
2023-03-17T05:27:25.000Z,6.18
2023-03-17T05:32:25.000Z,6.1
2023-03-17T05:37:25.000Z,5.72
2023-03-17T05:42:25.000Z,5.62
2023-03-17T05:47:25.000Z,5.72
2023-03-17T05:52:25.000Z,5.58
2023-03-17T05:57:26.000Z,5.65
2023-03-17T06:02:26.000Z,5.55
2023-03-17T06:07:25.000Z,5.49
2023-03-17T06:12:26.000Z,5.33
2023-03-17T06:17:25.000Z,5.46
2023-03-17T06:22:26.000Z,5.12
2023-03-17T06:27:25.000Z,5.77
2023-03-17T06:32:25.000Z,5.81
2023-03-17T06:37:24.000Z,5.5
2023-03-17T06:42:25.000Z,5.6
2023-03-17T06:47:25.000Z,5.58
2023-03-17T06:52:26.000Z,5.46
2023-03-17T06:57:25.000Z,5.72
2023-03-17T07:02:25.000Z,5.73
2023-03-17T07:07:26.000Z,5.51
2023-03-17T07:12:26.000Z,5.76
2023-03-17T07:17:25.000Z,5.53
2023-03-17T07:22:26.000Z,6.16
2023-03-17T07:27:25.000Z,5.52
2023-03-17T07:32:25.000Z,5.57
2023-03-17T07:37:25.000Z,5.21
2023-03-17T07:42:25.000Z,5.38
2023-03-17T07:47:25.000Z,5
2023-03-17T07:52:25.000Z,5.1
2023-03-17T07:57:25.000Z,5.38
2023-03-17T08:02:25.000Z,6.24
2023-03-17T08:07:25.000Z,5.64
2023-03-17T08:12:25.000Z,5.14
2023-03-17T08:17:26.000Z,4.93
2023-03-17T08:22:26.000Z,5.14
2023-03-17T08:27:25.000Z,5.31
2023-03-17T08:32:26.000Z,5.61
2023-03-17T08:37:25.000Z,5.71
2023-03-17T08:42:25.000Z,5.3
2023-03-17T08:47:26.000Z,5.78
2023-03-17T08:52:25.000Z,6.26
2023-03-17T08:57:25.000Z,6.36
2023-03-17T09:02:26.000Z,6.65
2023-03-17T09:07:25.000Z,5.38
2023-03-17T09:12:25.000Z,4.94
2023-03-17T09:17:26.000Z,5.12
2023-03-17T09:22:25.000Z,5.91
2023-03-17T09:27:25.000Z,8.04
2023-03-17T09:32:25.000Z,6.98
2023-03-17T09:37:25.000Z,5.56
2023-03-17T09:42:25.000Z,8.46
2023-03-17T09:47:25.000Z,4.59
2023-03-17T09:52:25.000Z,5.24
2023-03-17T09:57:25.000Z,4.8
2023-03-17T10:02:25.000Z,4.56
2023-03-17T10:07:25.000Z,5.62
2023-03-17T10:12:25.000Z,5.23
2023-03-17T10:17:25.000Z,6.52
2023-03-17T10:22:26.000Z,6.14
2023-03-17T10:27:25.000Z,5.13
2023-03-17T10:32:25.000Z,5.1
2023-03-17T10:37:24.000Z,5.02
2023-03-17T10:42:25.000Z,5.37
2023-03-17T10:47:26.000Z,5.07
2023-03-17T10:52:25.000Z,5.73
2023-03-17T10:57:25.000Z,4.63
2023-03-17T11:02:25.000Z,4.97
2023-03-17T11:07:25.000Z,6.01
2023-03-17T11:12:25.000Z,6.39
2023-03-17T11:17:25.000Z,5.37
2023-03-17T11:22:25.000Z,4.89
2023-03-17T11:27:25.000Z,4.29
2023-03-17T11:32:26.000Z,4.72
2023-03-17T11:37:25.000Z,4.99
2023-03-17T11:42:26.000Z,5.33
2023-03-17T11:47:26.000Z,5.24
2023-03-17T11:52:25.000Z,5
2023-03-17T11:57:25.000Z,5.27
2023-03-17T12:02:25.000Z,4.97
2023-03-17T12:07:25.000Z,4.7
2023-03-17T12:12:26.000Z,5.51
2023-03-17T12:17:25.000Z,5.63
2023-03-17T12:22:25.000Z,6.17
2023-03-17T12:27:25.000Z,5.8
2023-03-17T12:32:25.000Z,6.04
2023-03-17T12:37:25.000Z,6.75
2023-03-17T12:42:25.000Z,6.63
2023-03-17T12:47:25.000Z,7.98
2023-03-17T12:52:25.000Z,7.62
2023-03-17T12:57:25.000Z,8.11
2023-03-17T13:02:25.000Z,6.63
2023-03-17T13:07:25.000Z,7.36
2023-03-17T13:12:25.000Z,5.42
2023-03-17T13:17:25.000Z,5.56
2023-03-17T13:22:25.000Z,5.57
2023-03-17T13:27:26.000Z,5.67
2023-03-17T13:32:25.000Z,6.12
2023-03-17T13:37:26.000Z,5.86
2023-03-17T13:42:25.000Z,5.8
2023-03-17T13:47:25.000Z,5.26
2023-03-17T13:52:25.000Z,5.84
2023-03-17T13:57:26.000Z,6.17
2023-03-17T14:02:25.000Z,5.74
2023-03-17T14:07:25.000Z,7.61
2023-03-17T14:12:25.000Z,5.86
2023-03-17T14:17:25.000Z,5.34
2023-03-17T14:22:25.000Z,5.7
2023-03-17T14:27:25.000Z,5.88
2023-03-17T14:32:25.000Z,5.96
2023-03-17T14:37:25.000Z,6.21
2023-03-17T14:42:26.000Z,5.31
2023-03-17T14:47:25.000Z,5.51
2023-03-17T14:52:25.000Z,5.6
2023-03-17T14:57:25.000Z,6.53
2023-03-17T15:02:26.000Z,6.07
2023-03-17T15:07:26.000Z,6.38
2023-03-17T15:12:25.000Z,5.72
2023-03-17T15:17:26.000Z,6.32
2023-03-17T15:22:25.000Z,6.67
2023-03-17T15:27:25.000Z,5.76
2023-03-17T15:32:25.000Z,5.82
2023-03-17T15:37:26.000Z,6.22
2023-03-17T15:42:25.000Z,5.98
2023-03-17T15:47:25.000Z,6.85
2023-03-17T15:52:25.000Z,6.26
2023-03-17T15:57:26.000Z,6.05
2023-03-17T16:02:25.000Z,6.67
2023-03-17T16:07:26.000Z,6.84
2023-03-17T16:12:26.000Z,7.26
2023-03-17T16:17:25.000Z,7.1
2023-03-17T16:22:26.000Z,6.03
2023-03-17T16:27:25.000Z,7.11
2023-03-17T16:32:25.000Z,6.59
2023-03-17T16:37:25.000Z,6.91
2023-03-17T16:42:26.000Z,6.5
2023-03-17T16:47:25.000Z,6.65
2023-03-17T16:52:25.000Z,6.53
2023-03-17T16:57:25.000Z,6.61
2023-03-17T17:02:25.000Z,6.85
2023-03-17T17:07:25.000Z,7.03
2023-03-17T17:12:26.000Z,6.41
2023-03-17T17:17:26.000Z,6.92
2023-03-17T17:22:25.000Z,6.92
2023-03-17T17:27:25.000Z,6.87
2023-03-17T17:32:25.000Z,7.24
2023-03-17T17:37:25.000Z,6.31
2023-03-17T17:42:25.000Z,6.64
2023-03-17T17:47:26.000Z,7.22
2023-03-17T17:52:25.000Z,8.38
2023-03-17T17:57:25.000Z,8.92
2023-03-17T18:02:25.000Z,9.53
2023-03-17T18:07:25.000Z,9.25
2023-03-17T18:12:25.000Z,8.49
2023-03-17T18:17:25.000Z,8.47
2023-03-17T18:22:25.000Z,9.14
2023-03-17T18:27:25.000Z,9.42
2023-03-17T18:32:25.000Z,8.42
2023-03-17T18:37:25.000Z,8.33
2023-03-17T18:42:24.000Z,8.05
2023-03-17T18:47:26.000Z,8.25
2023-03-17T18:52:25.000Z,8.37
2023-03-17T18:57:25.000Z,8.67
2023-03-17T19:02:25.000Z,8.45
2023-03-17T19:07:25.000Z,10.06
2023-03-17T19:12:25.000Z,10.42
2023-03-17T19:17:25.000Z,10.82
2023-03-17T19:22:25.000Z,8.83
2023-03-17T19:27:25.000Z,9.5
2023-03-17T19:32:25.000Z,10.32
2023-03-17T19:37:25.000Z,10.03
2023-03-17T19:42:26.000Z,9.97
2023-03-17T19:47:26.000Z,10.71
2023-03-17T19:52:25.000Z,10.06
2023-03-17T19:57:25.000Z,9.51
2023-03-17T20:02:25.000Z,9.23
2023-03-17T20:07:26.000Z,8.86
2023-03-17T20:12:25.000Z,9.3
2023-03-17T20:17:25.000Z,9.36
2023-03-17T20:22:25.000Z,9.11
2023-03-17T20:27:25.000Z,8.81
2023-03-17T20:32:25.000Z,9.07
2023-03-17T20:37:25.000Z,10.2
2023-03-17T20:42:25.000Z,9.52
2023-03-17T20:47:25.000Z,9.83
2023-03-17T20:52:25.000Z,9.12
2023-03-17T20:57:25.000Z,9.29
2023-03-17T21:02:26.000Z,9.16
2023-03-17T21:07:25.000Z,9.36
2023-03-17T21:12:26.000Z,9.08
2023-03-17T21:17:25.000Z,9.62
2023-03-17T21:22:25.000Z,8.96
2023-03-17T21:27:25.000Z,10.45
2023-03-17T21:32:26.000Z,10.13
2023-03-17T21:37:25.000Z,10.06
2023-03-17T21:42:25.000Z,9.79
2023-03-17T21:47:25.000Z,10.3
2023-03-17T21:52:26.000Z,10.55
2023-03-17T21:57:25.000Z,9.85
2023-03-17T22:02:25.000Z,10.91
2023-03-17T22:07:25.000Z,9.71
2023-03-17T22:12:25.000Z,10.15
2023-03-17T22:17:25.000Z,11.45
2023-03-17T22:22:26.000Z,12.52
2023-03-17T22:27:25.000Z,12.48
2023-03-17T22:32:25.000Z,12.3
2023-03-17T22:37:25.000Z,10.35
2023-03-17T22:42:25.000Z,10.02
2023-03-17T22:47:25.000Z,10.16
2023-03-17T22:52:26.000Z,9.84
2023-03-17T22:57:25.000Z,9.65
2023-03-17T23:02:25.000Z,10.25
2023-03-17T23:07:25.000Z,11.17
2023-03-17T23:12:25.000Z,10.11
2023-03-17T23:17:25.000Z,10.06
2023-03-17T23:22:26.000Z,9.28
2023-03-17T23:27:25.000Z,8.72
2023-03-17T23:32:25.000Z,9.1
2023-03-17T23:37:25.000Z,8.73
2023-03-17T23:42:24.000Z,8.33
2023-03-17T23:47:25.000Z,8.2
2023-03-17T23:52:25.000Z,7.55
2023-03-17T23:57:25.000Z,8.46
